Time;durP1;ratioP1;P1;durP2;ratioP2;P2;SDS_P1;SDS_P2;PMS_P1;PMS_P2;Temp;Humidity;BMP_temperature;BMP_pressure;BME280_temperature;BME280_humidity;BME280_pressure;Samples;Min_cycle;Max_cycle;Signal;HPM_P1;HPM_P2
2021/06/03 00:00:28;;;;;;;15.52;13.05;;;;;;;;;;1497473;39;20027;-58
2021/06/03 00:01:30;;;;;;;19.27;13.80;;;;;;;;;;1497338;39;20039;-59
2021/06/03 00:02:30;;;;;;;16.85;13.77;;;;;;;;;;1497415;39;20050;-57
2021/06/03 00:03:35;;;;;;;15.43;13.90;;;;;;;;;;1497154;39;20020;-57
2021/06/03 00:04:36;;;;;;;16.60;13.57;;;;;;;;;;1497270;39;20290;-58
2021/06/03 00:05:41;;;;;;;14.80;13.30;;;;;;;;;;1497298;39;20036;-58
2021/06/03 00:06:42;;;;;;;14.38;12.95;;;;;;;;;;1497132;39;20395;-58
2021/06/03 00:07:43;;;;;;;14.63;13.02;;;;;;;;;;1497383;39;20027;-58
2021/06/03 00:08:46;;;;;;;14.80;13.18;;;;;;;;;;1497519;39;20035;-57
2021/06/03 00:09:47;;;;;;;14.93;13.48;;;;;;;;;;1497380;39;20032;-58
2021/06/03 00:10:51;;;;;;;15.38;13.68;;;;;;;;;;1497351;39;20023;-58
2021/06/03 00:11:52;;;;;;;16.17;13.60;;;;;;;;;;1497383;39;20111;-58
2021/06/03 00:12:53;;;;;;;16.45;14.38;;;;;;;;;;1497396;39;20131;-59
2021/06/03 00:13:54;;;;;;;14.93;13.40;;;;;;;;;;1497475;39;20030;-57
2021/06/03 00:14:55;;;;;;;14.57;13.00;;;;;;;;;;1497320;39;20036;-58
2021/06/03 00:15:59;;;;;;;15.32;13.63;;;;;;;;;;1497330;39;20452;-58
2021/06/03 00:17:00;;;;;;;15.45;13.57;;;;;;;;;;1497370;39;20031;-58
2021/06/03 00:18:02;;;;;;;15.52;12.95;;;;;;;;;;1497251;39;20286;-58
2021/06/03 00:19:06;;;;;;;14.15;12.45;;;;;;;;;;1497263;39;20038;-57
2021/06/03 00:20:09;;;;;;;14.43;12.60;;;;;;;;;;1497281;39;20032;-58
2021/06/03 00:21:11;;;;;;;14.30;12.80;;;;;;;;;;1497218;39;20295;-59
2021/06/03 00:22:12;;;;;;;14.02;12.63;;;;;;;;;;1497134;39;20314;-58
2021/06/03 00:23:13;;;;;;;15.68;12.95;;;;;;;;;;1497378;39;20031;-58
2021/06/03 00:24:15;;;;;;;14.82;13.25;;;;;;;;;;1497183;39;20294;-57
2021/06/03 00:25:17;;;;;;;14.40;12.90;;;;;;;;;;1497217;39;20128;-58
2021/06/03 00:26:18;;;;;;;14.05;12.45;;;;;;;;;;1497157;39;20030;-58
2021/06/03 00:27:19;;;;;;;15.63;13.13;;;;;;;;;;1497281;39;20374;-58
2021/06/03 00:28:20;;;;;;;15.95;12.98;;;;;;;;;;1497148;39;20372;-58
2021/06/03 00:29:22;;;;;;;13.40;12.00;;;;;;;;;;1497136;39;20306;-58
2021/06/03 00:30:23;;;;;;;13.43;11.98;;;;;;;;;;1497128;39;20023;-58
2021/06/03 00:31:24;;;;;;;14.07;12.57;;;;;;;;;;1497255;39;20054;-58
2021/06/03 00:32:25;;;;;;;13.70;12.27;;;;;;;;;;1497222;39;20087;-58
2021/06/03 00:33:26;;;;;;;14.38;12.82;;;;;;;;;;1497380;39;20084;-57
2021/06/03 00:34:39;;;;;;;14.73;12.50;;;;;;;;;;1497105;39;20032;-58
2021/06/03 00:35:42;;;;;;;14.50;12.05;;;;;;;;;;1497275;39;20031;-59
2021/06/03 00:36:43;;;;;;;14.23;11.93;;;;;;;;;;1497224;39;20038;-59
2021/06/03 00:37:44;;;;;;;13.30;11.90;;;;;;;;;;1497173;39;20023;-58
2021/06/03 00:38:45;;;;;;;13.57;12.23;;;;;;;;;;1497132;39;20031;-58
2021/06/03 00:39:47;;;;;;;15.57;12.38;;;;;;;;;;1497155;39;20411;-58
2021/06/03 00:40:49;;;;;;;13.90;12.05;;;;;;;;;;1497100;39;20119;-58
2021/06/03 00:41:50;;;;;;;18.27;13.02;;;;;;;;;;1497107;39;20298;-58
2021/06/03 00:42:51;;;;;;;14.05;12.50;;;;;;;;;;1497150;39;20034;-58
2021/06/03 00:43:52;;;;;;;14.18;12.73;;;;;;;;;;1497096;39;20027;-58
2021/06/03 00:44:54;;;;;;;14.05;12.38;;;;;;;;;;1497318;39;20027;-58
2021/06/03 00:45:54;;;;;;;13.05;11.68;;;;;;;;;;1497081;39;20039;-57
2021/06/03 00:46:56;;;;;;;13.80;12.38;;;;;;;;;;1497324;39;20053;-58
2021/06/03 00:47:57;;;;;;;14.00;12.52;;;;;;;;;;1497256;39;20144;-59
2021/06/03 00:48:59;;;;;;;14.07;12.57;;;;;;;;;;1497320;39;20035;-58
2021/06/03 00:50:00;;;;;;;17.30;11.90;;;;;;;;;;1497090;39;20515;-58
2021/06/03 00:51:04;;;;;;;14.27;12.60;;;;;;;;;;1497089;39;20077;-57
2021/06/03 00:52:06;;;;;;;15.75;12.00;;;;;;;;;;1497193;39;20128;-57
2021/06/03 00:53:11;;;;;;;16.02;12.38;;;;;;;;;;1497148;39;20039;-58
2021/06/03 00:54:12;;;;;;;14.13;12.73;;;;;;;;;;1497083;39;20035;-58
2021/06/03 00:55:15;;;;;;;13.57;12.15;;;;;;;;;;1497103;39;20031;-58
2021/06/03 00:56:16;;;;;;;13.80;12.32;;;;;;;;;;1492361;39;20024;-57
2021/06/03 00:57:17;;;;;;;13.20;11.63;;;;;;;;;;1492405;39;20050;-57
2021/06/03 00:58:19;;;;;;;12.60;11.05;;;;;;;;;;1497102;39;20275;-58
2021/06/03 00:59:20;;;;;;;14.23;11.82;;;;;;;;;;1497051;39;20031;-58
2021/06/03 01:00:22;;;;;;;13.00;11.05;;;;;;;;;;1497062;39;20034;-58
2021/06/03 01:01:24;;;;;;;12.85;11.35;;;;;;;;;;1497083;39;20054;-58
2021/06/03 01:02:25;;;;;;;13.23;11.85;;;;;;;;;;1497246;39;20039;-58
2021/06/03 01:03:28;;;;;;;13.10;11.68;;;;;;;;;;1497019;39;20031;-57
2021/06/03 01:04:29;;;;;;;13.43;11.98;;;;;;;;;;1497069;39;20039;-58
2021/06/03 01:05:36;;;;;;;14.45;11.93;;;;;;;;;;1497271;39;20032;-58
2021/06/03 01:06:37;;;;;;;12.38;11.07;;;;;;;;;;1497266;39;20027;-58
2021/06/03 01:07:38;;;;;;;13.30;11.90;;;;;;;;;;1497424;39;20290;-61
2021/06/03 01:08:42;;;;;;;12.88;11.50;;;;;;;;;;1497146;39;20317;-62
2021/06/03 01:09:50;;;;;;;13.13;11.30;;;;;;;;;;1497023;39;20027;-62
2021/06/03 01:10:57;;;;;;;14.95;11.50;;;;;;;;;;1497034;39;20028;-62
2021/06/03 01:12:06;;;;;;;12.68;10.93;;;;;;;;;;1497001;39;20031;-62
2021/06/03 01:13:11;;;;;;;12.65;11.25;;;;;;;;;;1497068;39;20050;-62
2021/06/03 01:14:18;;;;;;;13.20;11.60;;;;;;;;;;1496994;39;20024;-62
2021/06/03 01:15:20;;;;;;;13.52;11.43;;;;;;;;;;1497001;39;20030;-62
2021/06/03 01:16:22;;;;;;;14.15;11.82;;;;;;;;;;1497103;39;20054;-61
2021/06/03 01:17:25;;;;;;;13.15;11.75;;;;;;;;;;1492282;39;20020;-62
2021/06/03 01:18:27;;;;;;;12.50;11.20;;;;;;;;;;1492100;39;20434;-62
2021/06/03 01:19:32;;;;;;;12.73;11.23;;;;;;;;;;1497235;39;20027;-62
2021/06/03 01:20:34;;;;;;;12.18;10.98;;;;;;;;;;1497177;39;20031;-62
2021/06/03 01:21:41;;;;;;;13.80;10.95;;;;;;;;;;1497164;39;20032;-61
2021/06/03 01:22:52;;;;;;;12.60;11.23;;;;;;;;;;1497046;39;20059;-62
2021/06/03 01:24:00;;;;;;;13.75;11.35;;;;;;;;;;1497065;39;20023;-61
2021/06/03 01:25:06;;;;;;;12.35;11.05;;;;;;;;;;1497009;39;20306;-62
2021/06/03 01:26:08;;;;;;;12.50;11.10;;;;;;;;;;1497056;39;20020;-62
2021/06/03 01:27:11;;;;;;;14.23;10.68;;;;;;;;;;1497172;39;20020;-62
2021/06/03 01:28:13;;;;;;;12.40;11.02;;;;;;;;;;1496993;39;20037;-62
2021/06/03 01:29:17;;;;;;;11.88;10.63;;;;;;;;;;1497202;39;20023;-62
2021/06/03 01:30:21;;;;;;;12.98;11.35;;;;;;;;;;1497111;39;20050;-62
2021/06/03 01:31:22;;;;;;;12.25;10.63;;;;;;;;;;1497147;39;20040;-62
2021/06/03 01:32:28;;;;;;;12.60;11.40;;;;;;;;;;1496933;39;20403;-62
2021/06/03 01:33:31;;;;;;;13.07;11.35;;;;;;;;;;1496941;39;20035;-62
2021/06/03 01:34:33;;;;;;;11.63;10.02;;;;;;;;;;1496921;39;20031;-61
2021/06/03 01:35:37;;;;;;;14.38;11.75;;;;;;;;;;1496984;39;20027;-62
2021/06/03 01:36:38;;;;;;;13.80;11.38;;;;;;;;;;1497078;39;20057;-62
2021/06/03 01:37:40;;;;;;;13.70;10.88;;;;;;;;;;1497142;39;20024;-62
2021/06/03 01:38:43;;;;;;;11.35;10.18;;;;;;;;;;1497164;39;20031;-62
2021/06/03 01:39:45;;;;;;;12.93;10.63;;;;;;;;;;1497164;39;20031;-62
2021/06/03 01:40:50;;;;;;;12.95;11.02;;;;;;;;;;1496956;39;20279;-62
2021/06/03 01:41:53;;;;;;;12.77;11.25;;;;;;;;;;1496842;39;20042;-61
2021/06/03 01:42:55;;;;;;;12.93;10.93;;;;;;;;;;1497033;39;20035;-61
2021/06/03 01:43:57;;;;;;;14.77;11.35;;;;;;;;;;1497040;39;20024;-62
2021/06/03 01:44:59;;;;;;;12.18;10.85;;;;;;;;;;1496943;39;20035;-62
2021/06/03 01:46:01;;;;;;;11.93;10.73;;;;;;;;;;1497075;39;20032;-62
2021/06/03 01:47:06;;;;;;;12.07;10.45;;;;;;;;;;1496877;39;20383;-62
2021/06/03 01:48:08;;;;;;;12.02;10.52;;;;;;;;;;1497226;39;20031;-62
2021/06/03 01:49:09;;;;;;;13.10;10.88;;;;;;;;;;1496961;39;20267;-62
2021/06/03 01:50:11;;;;;;;12.40;10.00;;;;;;;;;;1497063;39;20024;-61
2021/06/03 01:51:13;;;;;;;10.82;9.73;;;;;;;;;;1497062;39;20043;-62
2021/06/03 01:52:14;;;;;;;12.15;10.85;;;;;;;;;;1497049;39;20111;-61
2021/06/03 01:53:16;;;;;;;12.13;10.50;;;;;;;;;;1496919;39;20116;-62
2021/06/03 01:54:18;;;;;;;11.63;10.40;;;;;;;;;;1497006;39;20034;-62
2021/06/03 01:55:20;;;;;;;12.50;10.20;;;;;;;;;;1496989;39;20035;-62
2021/06/03 01:56:23;;;;;;;11.43;9.80;;;;;;;;;;1497047;39;20030;-62
2021/06/03 01:57:25;;;;;;;14.00;10.30;;;;;;;;;;1496888;39;20387;-61
2021/06/03 01:58:26;;;;;;;11.65;10.45;;;;;;;;;;1497067;39;20084;-62
2021/06/03 01:59:27;;;;;;;11.45;9.88;;;;;;;;;;1497099;39;20031;-62
2021/06/03 02:00:29;;;;;;;12.93;11.23;;;;;;;;;;1496955;39;20028;-62
2021/06/03 02:01:30;;;;;;;12.55;10.43;;;;;;;;;;1496966;39;20039;-61
2021/06/03 02:02:31;;;;;;;12.35;10.07;;;;;;;;;;1497098;39;20036;-61
2021/06/03 02:03:33;;;;;;;12.75;10.63;;;;;;;;;;1497042;39;20067;-62
2021/06/03 02:04:33;;;;;;;12.45;11.10;;;;;;;;;;1496877;39;20028;-62
2021/06/03 02:05:35;;;;;;;12.20;10.35;;;;;;;;;;1497160;39;20031;-62
2021/06/03 02:06:36;;;;;;;13.82;10.93;;;;;;;;;;1496872;39;20031;-62
2021/06/03 02:07:38;;;;;;;12.65;10.75;;;;;;;;;;1496895;39;20027;-62
2021/06/03 02:08:40;;;;;;;11.80;10.55;;;;;;;;;;1496975;39;20039;-61
2021/06/03 02:09:41;;;;;;;15.50;11.35;;;;;;;;;;1497036;39;20032;-61
2021/06/03 02:10:42;;;;;;;12.02;10.50;;;;;;;;;;1496941;39;20027;-61
2021/06/03 02:11:47;;;;;;;11.85;10.48;;;;;;;;;;1496827;39;20028;-61
2021/06/03 02:12:55;;;;;;;15.23;10.43;;;;;;;;;;1496947;39;20371;-62
2021/06/03 02:14:00;;;;;;;13.75;10.32;;;;;;;;;;1496861;39;20039;-62
2021/06/03 02:15:01;;;;;;;11.90;10.07;;;;;;;;;;1496981;39;20075;-62
2021/06/03 02:16:08;;;;;;;13.63;10.82;;;;;;;;;;1496806;39;20043;-62
2021/06/03 02:17:15;;;;;;;11.68;10.00;;;;;;;;;;1497108;39;20051;-62
2021/06/03 02:18:18;;;;;;;11.38;9.10;;;;;;;;;;1496793;39;20027;-62
2021/06/03 02:19:22;;;;;;;13.38;10.07;;;;;;;;;;1497010;39;20034;-62
2021/06/03 02:20:29;;;;;;;11.50;9.40;;;;;;;;;;1496805;39;20039;-62
2021/06/03 02:21:32;;;;;;;14.50;10.48;;;;;;;;;;1496974;39;20035;-62
2021/06/03 02:22:35;;;;;;;11.30;10.07;;;;;;;;;;1496802;39;20383;-62
2021/06/03 02:23:36;;;;;;;12.73;9.85;;;;;;;;;;1496814;39;20070;-62
2021/06/03 02:24:38;;;;;;;11.07;9.90;;;;;;;;;;1496964;39;20043;-62
2021/06/03 02:25:39;;;;;;;11.15;9.85;;;;;;;;;;1496802;39;20375;-62
2021/06/03 02:26:42;;;;;;;12.85;10.55;;;;;;;;;;1496791;39;20035;-61
2021/06/03 02:27:45;;;;;;;13.38;10.85;;;;;;;;;;1496978;39;20034;-62
2021/06/03 02:28:48;;;;;;;12.82;11.13;;;;;;;;;;1496826;39;20043;-62
2021/06/03 02:29:50;;;;;;;13.80;9.98;;;;;;;;;;1496988;39;20031;-62
2021/06/03 02:30:52;;;;;;;11.52;10.27;;;;;;;;;;1497456;39;20027;-61
2021/06/03 02:31:53;;;;;;;12.13;10.35;;;;;;;;;;1497552;39;20032;-62
2021/06/03 02:32:55;;;;;;;14.63;10.77;;;;;;;;;;1497472;39;20298;-62
2021/06/03 02:33:55;;;;;;;13.60;10.80;;;;;;;;;;1497605;39;20060;-62
2021/06/03 02:34:57;;;;;;;10.15;9.15;;;;;;;;;;1497583;39;20032;-62
2021/06/03 02:35:58;;;;;;;14.85;9.93;;;;;;;;;;1497491;39;20286;-62
2021/06/03 02:37:00;;;;;;;11.70;10.50;;;;;;;;;;1497695;39;20024;-62
2021/06/03 02:38:01;;;;;;;11.38;10.10;;;;;;;;;;1497487;39;20081;-62
2021/06/03 02:39:06;;;;;;;10.40;9.30;;;;;;;;;;1497425;39;20028;-62
2021/06/03 02:40:10;;;;;;;11.23;10.00;;;;;;;;;;1497624;39;20024;-62
2021/06/03 02:41:12;;;;;;;11.70;10.40;;;;;;;;;;1497638;39;20027;-62
2021/06/03 02:42:14;;;;;;;11.52;10.32;;;;;;;;;;1497451;39;20035;-62
2021/06/03 02:43:17;;;;;;;10.98;9.80;;;;;;;;;;1497405;39;20390;-62
2021/06/03 02:44:18;;;;;;;12.85;10.30;;;;;;;;;;1497460;39;20036;-61
2021/06/03 02:45:22;;;;;;;10.73;9.63;;;;;;;;;;1497353;39;20031;-61
2021/06/03 02:46:24;;;;;;;10.82;9.63;;;;;;;;;;1497600;39;20034;-62
2021/06/03 02:47:26;;;;;;;12.52;9.75;;;;;;;;;;1497383;39;20398;-62
2021/06/03 02:48:27;;;;;;;11.88;10.65;;;;;;;;;;1497374;39;20483;-62
2021/06/03 02:49:28;;;;;;;11.40;10.25;;;;;;;;;;1497568;39;20031;-62
2021/06/03 02:50:29;;;;;;;11.65;9.85;;;;;;;;;;1497585;39;20032;-62
2021/06/03 02:51:31;;;;;;;11.52;10.25;;;;;;;;;;1497508;39;20370;-61
2021/06/03 02:52:31;;;;;;;11.93;9.68;;;;;;;;;;1497418;39;20382;-62
2021/06/03 02:53:33;;;;;;;10.73;9.63;;;;;;;;;;1497420;39;20035;-62
2021/06/03 02:54:34;;;;;;;12.45;10.57;;;;;;;;;;1497487;39;20024;-62
2021/06/03 02:55:36;;;;;;;11.30;10.00;;;;;;;;;;1497393;39;20035;-61
2021/06/03 02:56:37;;;;;;;13.35;10.38;;;;;;;;;;1497410;39;20031;-62
2021/06/03 02:57:38;;;;;;;11.05;9.75;;;;;;;;;;1497448;39;20027;-62
2021/06/03 02:58:41;;;;;;;11.02;9.63;;;;;;;;;;1497532;39;20032;-62
2021/06/03 02:59:43;;;;;;;11.35;10.18;;;;;;;;;;1497373;39;20321;-62
2021/06/03 03:00:43;;;;;;;11.50;9.60;;;;;;;;;;1497345;39;20402;-61
2021/06/03 03:01:45;;;;;;;10.95;9.65;;;;;;;;;;1497438;39;20089;-62
2021/06/03 03:02:46;;;;;;;10.75;9.65;;;;;;;;;;1497569;39;20108;-62
2021/06/03 03:03:47;;;;;;;11.57;10.10;;;;;;;;;;1497402;39;20383;-62
2021/06/03 03:04:48;;;;;;;11.25;9.82;;;;;;;;;;1497386;39;20036;-62
2021/06/03 03:05:50;;;;;;;12.77;10.32;;;;;;;;;;1497331;39;20036;-61
2021/06/03 03:06:51;;;;;;;11.77;10.18;;;;;;;;;;1497522;39;20031;-61
2021/06/03 03:07:52;;;;;;;12.52;9.57;;;;;;;;;;1497568;39;20032;-62
2021/06/03 03:08:53;;;;;;;11.05;9.27;;;;;;;;;;1497339;39;20302;-62
2021/06/03 03:09:55;;;;;;;11.15;9.55;;;;;;;;;;1497531;39;20027;-62
2021/06/03 03:10:58;;;;;;;12.55;9.73;;;;;;;;;;1497375;39;20027;-62
2021/06/03 03:11:59;;;;;;;10.48;9.38;;;;;;;;;;1497344;39;20038;-62
2021/06/03 03:13:00;;;;;;;12.25;9.40;;;;;;;;;;1497604;39;20035;-62
2021/06/03 03:14:03;;;;;;;11.38;9.60;;;;;;;;;;1497319;39;20034;-62
2021/06/03 03:15:05;;;;;;;12.38;10.32;;;;;;;;;;1497461;39;20034;-62
2021/06/03 03:16:06;;;;;;;12.07;10.00;;;;;;;;;;1497319;39;20034;-62
2021/06/03 03:17:07;;;;;;;10.85;9.80;;;;;;;;;;1497345;39;20035;-62
2021/06/03 03:18:08;;;;;;;12.93;9.55;;;;;;;;;;1497330;39;20306;-62
2021/06/03 03:19:09;;;;;;;10.75;9.52;;;;;;;;;;1497299;39;20038;-62
2021/06/03 03:20:13;;;;;;;10.60;9.50;;;;;;;;;;1497292;39;20390;-62
2021/06/03 03:21:15;;;;;;;11.20;9.55;;;;;;;;;;1497522;39;20031;-62
2021/06/03 03:22:16;;;;;;;10.75;9.63;;;;;;;;;;1497312;39;20039;-61
2021/06/03 03:23:17;;;;;;;9.70;8.70;;;;;;;;;;1497396;39;20019;-63
2021/06/03 03:24:18;;;;;;;9.93;8.88;;;;;;;;;;1497514;39;20031;-62
2021/06/03 03:25:20;;;;;;;11.48;8.75;;;;;;;;;;1497294;39;20287;-62
2021/06/03 03:26:21;;;;;;;10.00;8.70;;;;;;;;;;1497289;39;20027;-62
2021/06/03 03:27:22;;;;;;;11.43;10.30;;;;;;;;;;1497461;39;20024;-62
2021/06/03 03:28:24;;;;;;;11.25;10.05;;;;;;;;;;1497368;39;20472;-63
2021/06/03 03:29:26;;;;;;;12.55;9.43;;;;;;;;;;1497362;39;20411;-62
2021/06/03 03:30:29;;;;;;;12.77;9.73;;;;;;;;;;1497362;39;20028;-62
2021/06/03 03:31:30;;;;;;;11.95;9.65;;;;;;;;;;1497193;39;20031;-62
2021/06/03 03:32:31;;;;;;;11.35;9.18;;;;;;;;;;1497319;39;20478;-62
2021/06/03 03:33:33;;;;;;;11.73;9.77;;;;;;;;;;1497272;39;20036;-62
2021/06/03 03:34:33;;;;;;;12.02;9.32;;;;;;;;;;1497216;39;20314;-62
2021/06/03 03:35:35;;;;;;;12.23;9.57;;;;;;;;;;1497272;39;20035;-62
2021/06/03 03:36:37;;;;;;;10.75;8.82;;;;;;;;;;1497246;39;20027;-62
2021/06/03 03:37:40;;;;;;;10.57;9.05;;;;;;;;;;1497481;39;20028;-61
2021/06/03 03:38:41;;;;;;;11.98;10.15;;;;;;;;;;1497347;39;20028;-62
2021/06/03 03:39:42;;;;;;;12.50;9.85;;;;;;;;;;1497350;39;20131;-62
2021/06/03 03:40:44;;;;;;;10.13;9.10;;;;;;;;;;1497266;39;20116;-62
2021/06/03 03:41:45;;;;;;;11.55;8.90;;;;;;;;;;1497192;39;20043;-61
2021/06/03 03:42:47;;;;;;;10.65;9.20;;;;;;;;;;1497362;39;20035;-63
2021/06/03 03:43:48;;;;;;;10.15;9.15;;;;;;;;;;1497314;39;20031;-62
2021/06/03 03:44:50;;;;;;;11.88;10.00;;;;;;;;;;1497346;39;20027;-62
2021/06/03 03:45:52;;;;;;;11.60;9.45;;;;;;;;;;1497322;39;20361;-62
2021/06/03 03:46:53;;;;;;;10.13;9.13;;;;;;;;;;1497426;39;20063;-62
2021/06/03 03:47:54;;;;;;;10.85;9.68;;;;;;;;;;1497428;39;20024;-62
2021/06/03 03:48:56;;;;;;;9.85;8.63;;;;;;;;;;1497247;39;20491;-62
2021/06/03 03:49:57;;;;;;;10.93;9.00;;;;;;;;;;1497318;39;20028;-62
2021/06/03 03:50:58;;;;;;;13.60;9.65;;;;;;;;;;1497446;39;20115;-62
2021/06/03 03:52:00;;;;;;;9.73;8.73;;;;;;;;;;1497348;39;20031;-61
2021/06/03 03:53:03;;;;;;;12.55;9.10;;;;;;;;;;1497199;39;20023;-63
2021/06/03 03:54:04;;;;;;;9.93;8.93;;;;;;;;;;1497261;39;20032;-62
2021/06/03 03:55:07;;;;;;;10.40;8.65;;;;;;;;;;1497191;39;20027;-62
2021/06/03 03:56:08;;;;;;;10.10;9.02;;;;;;;;;;1497260;39;20023;-62
2021/06/03 03:57:10;;;;;;;12.23;8.75;;;;;;;;;;1497399;39;20031;-62
2021/06/03 03:58:11;;;;;;;11.68;8.55;;;;;;;;;;1497293;39;20031;-62
2021/06/03 03:59:12;;;;;;;10.32;8.77;;;;;;;;;;1497196;39;20039;-62
2021/06/03 04:00:17;;;;;;;9.43;8.45;;;;;;;;;;1497360;39;20034;-62
2021/06/03 04:01:19;;;;;;;9.75;8.75;;;;;;;;;;1497419;39;20020;-62
2021/06/03 04:02:20;;;;;;;10.18;8.70;;;;;;;;;;1497288;39;20055;-62
2021/06/03 04:03:22;;;;;;;11.02;9.13;;;;;;;;;;1497362;39;20028;-62
2021/06/03 04:05:00;;;;;;;10.18;9.18;;;;;;;;;;1497251;39;20027;-62
2021/06/03 04:06:01;;;;;;;11.82;8.60;;;;;;;;;;1497204;39;20111;-62
2021/06/03 04:07:02;;;;;;;11.30;9.07;;;;;;;;;;1497200;39;20112;-63
2021/06/03 04:08:03;;;;;;;9.88;8.32;;;;;;;;;;1497382;39;20112;-62
2021/06/03 04:09:06;;;;;;;9.18;8.20;;;;;;;;;;1497331;39;20035;-62
2021/06/03 04:10:09;;;;;;;11.23;8.75;;;;;;;;;;1497184;39;20028;-62
2021/06/03 04:11:10;;;;;;;9.88;8.30;;;;;;;;;;1497352;39;20031;-62
2021/06/03 04:12:11;;;;;;;9.88;8.63;;;;;;;;;;1497302;39;20039;-61
2021/06/03 04:13:12;;;;;;;9.35;8.35;;;;;;;;;;1497300;39;20027;-62
2021/06/03 04:14:13;;;;;;;9.68;7.72;;;;;;;;;;1497397;39;20027;-62
2021/06/03 04:15:17;;;;;;;9.82;8.82;;;;;;;;;;1497322;39;20286;-61
2021/06/03 04:16:18;;;;;;;10.07;8.27;;;;;;;;;;1497248;39;20399;-62
2021/06/03 04:17:19;;;;;;;9.65;8.10;;;;;;;;;;1497478;39;20036;-62
2021/06/03 04:18:20;;;;;;;8.77;7.82;;;;;;;;;;1497207;39;20290;-62
2021/06/03 04:19:22;;;;;;;9.85;8.63;;;;;;;;;;1497175;39;20027;-62
2021/06/03 04:20:23;;;;;;;8.63;7.70;;;;;;;;;;1497163;39;20302;-62
2021/06/03 04:21:24;;;;;;;9.20;8.30;;;;;;;;;;1492557;39;20024;-62
2021/06/03 04:22:26;;;;;;;10.45;8.68;;;;;;;;;;1492463;39;20322;-61
2021/06/03 04:23:27;;;;;;;9.82;8.82;;;;;;;;;;1497156;39;20298;-62
2021/06/03 04:24:28;;;;;;;11.85;8.25;;;;;;;;;;1492558;39;20044;-62
2021/06/03 04:25:29;;;;;;;10.73;8.48;;;;;;;;;;1492633;39;20028;-62
2021/06/03 04:26:30;;;;;;;11.25;8.60;;;;;;;;;;1497184;39;20390;-62
2021/06/03 04:27:32;;;;;;;9.20;8.13;;;;;;;;;;1497334;39;20034;-62
2021/06/03 04:28:33;;;;;;;10.00;7.85;;;;;;;;;;1497195;39;20027;-62
2021/06/03 04:29:34;;;;;;;8.70;7.78;;;;;;;;;;1497117;39;20027;-62
2021/06/03 04:30:40;;;;;;;11.75;8.90;;;;;;;;;;1497339;39;20023;-62
2021/06/03 04:31:41;;;;;;;10.52;7.90;;;;;;;;;;1497265;39;20042;-61
2021/06/03 04:32:42;;;;;;;9.23;8.05;;;;;;;;;;1497161;39;20038;-62
2021/06/03 04:33:43;;;;;;;11.27;8.60;;;;;;;;;;1497139;39;20035;-62
2021/06/03 04:34:44;;;;;;;10.10;8.38;;;;;;;;;;1497237;39;20030;-62
2021/06/03 04:35:46;;;;;;;9.45;8.40;;;;;;;;;;1497187;39;20023;-62
2021/06/03 04:36:47;;;;;;;11.13;8.68;;;;;;;;;;1497093;39;20325;-62
2021/06/03 04:37:49;;;;;;;9.98;8.18;;;;;;;;;;1497083;39;20039;-62
2021/06/03 04:38:50;;;;;;;9.32;7.93;;;;;;;;;;1497066;39;20019;-62
2021/06/03 04:39:52;;;;;;;9.07;7.95;;;;;;;;;;1497197;39;20475;-61
2021/06/03 04:40:53;;;;;;;9.60;8.05;;;;;;;;;;1497083;39;20027;-61
2021/06/03 04:41:54;;;;;;;8.77;7.88;;;;;;;;;;1497212;39;20031;-61
2021/06/03 04:42:56;;;;;;;9.63;8.15;;;;;;;;;;1497289;39;20038;-62
2021/06/03 04:43:57;;;;;;;10.15;8.50;;;;;;;;;;1497121;39;20459;-62
2021/06/03 04:44:58;;;;;;;8.70;7.90;;;;;;;;;;1497270;39;20027;-62
2021/06/03 04:46:00;;;;;;;11.00;8.27;;;;;;;;;;1497277;39;20032;-62
2021/06/03 04:47:01;;;;;;;9.52;7.80;;;;;;;;;;1497279;39;20023;-62
2021/06/03 04:48:05;;;;;;;9.05;8.13;;;;;;;;;;1497256;39;20030;-61
2021/06/03 04:49:05;;;;;;;9.10;8.10;;;;;;;;;;1497260;39;20039;-61
2021/06/03 04:50:08;;;;;;;9.18;8.27;;;;;;;;;;1497224;39;20291;-62
2021/06/03 04:51:09;;;;;;;9.48;8.00;;;;;;;;;;1497131;39;20356;-62
2021/06/03 04:52:25;;;;;;;9.50;8.43;;;;;;;;;;1497058;39;20065;-61
2021/06/03 04:53:26;;;;;;;9.35;7.72;;;;;;;;;;1496770;39;20035;-62
2021/06/03 04:54:27;;;;;;;8.82;7.80;;;;;;;;;;1497224;39;20027;-62
2021/06/03 04:55:30;;;;;;;8.40;7.60;;;;;;;;;;1497016;39;20035;-62
2021/06/03 04:56:31;;;;;;;9.30;7.88;;;;;;;;;;1497134;39;20039;-62
2021/06/03 04:57:33;;;;;;;9.38;7.82;;;;;;;;;;1497244;39;20035;-62
2021/06/03 04:58:34;;;;;;;8.63;7.55;;;;;;;;;;1497017;39;20054;-62
2021/06/03 04:59:35;;;;;;;8.75;7.40;;;;;;;;;;1497240;39;20031;-62
2021/06/03 05:00:39;;;;;;;12.13;7.82;;;;;;;;;;1497081;39;20298;-62
2021/06/03 05:01:42;;;;;;;7.90;6.90;;;;;;;;;;1496925;39;20401;-62
2021/06/03 05:02:44;;;;;;;10.23;7.90;;;;;;;;;;1497113;39;20024;-62
2021/06/03 05:03:44;;;;;;;8.60;7.63;;;;;;;;;;1497217;39;20027;-62
2021/06/03 05:04:46;;;;;;;8.80;7.78;;;;;;;;;;1497140;39;20027;-62
2021/06/03 05:05:47;;;;;;;9.23;7.38;;;;;;;;;;1497241;39;20031;-62
2021/06/03 05:06:48;;;;;;;8.25;7.53;;;;;;;;;;1497154;39;20375;-62
2021/06/03 05:07:50;;;;;;;7.82;7.03;;;;;;;;;;1497005;39;20053;-63
2021/06/03 05:08:51;;;;;;;8.00;7.07;;;;;;;;;;1497242;39;20031;-62
2021/06/03 05:09:52;;;;;;;8.77;7.50;;;;;;;;;;1497208;39;20023;-62
2021/06/03 05:10:53;;;;;;;8.75;7.55;;;;;;;;;;1497108;39;20034;-62
2021/06/03 05:11:54;;;;;;;8.93;7.28;;;;;;;;;;1496949;39;20399;-61
2021/06/03 05:12:56;;;;;;;8.15;7.30;;;;;;;;;;1497015;39;20028;-62
2021/06/03 05:13:57;;;;;;;8.27;7.18;;;;;;;;;;1497022;39;20034;-62
2021/06/03 05:14:58;;;;;;;9.30;7.35;;;;;;;;;;1496957;39;20034;-62
2021/06/03 05:16:00;;;;;;;8.75;7.03;;;;;;;;;;1497214;39;20027;-62
2021/06/03 05:17:03;;;;;;;8.13;6.97;;;;;;;;;;1497020;39;20034;-62
2021/06/03 05:18:04;;;;;;;9.00;7.18;;;;;;;;;;1496952;39;20023;-62
2021/06/03 05:19:05;;;;;;;11.20;6.90;;;;;;;;;;1497228;39;20108;-62
2021/06/03 05:20:09;;;;;;;7.93;7.13;;;;;;;;;;1497193;39;20040;-62
2021/06/03 05:21:10;;;;;;;7.55;6.68;;;;;;;;;;1497132;39;20036;-62
2021/06/03 05:22:11;;;;;;;7.95;6.80;;;;;;;;;;1496926;39;20042;-62
2021/06/03 05:23:13;;;;;;;8.48;6.90;;;;;;;;;;1497172;39;20035;-62
2021/06/03 05:24:14;;;;;;;7.93;6.28;;;;;;;;;;1496990;39;20115;-62
2021/06/03 05:25:18;;;;;;;7.40;6.60;;;;;;;;;;1496977;39;20112;-62
2021/06/03 05:26:19;;;;;;;7.75;6.53;;;;;;;;;;1497004;39;20071;-62
2021/06/03 05:27:20;;;;;;;8.38;6.55;;;;;;;;;;1497107;39;20023;-62
2021/06/03 05:28:21;;;;;;;7.70;6.40;;;;;;;;;;1497118;39;20023;-62
2021/06/03 05:29:22;;;;;;;7.22;6.40;;;;;;;;;;1497036;39;20322;-62
2021/06/03 05:30:25;;;;;;;7.13;6.00;;;;;;;;;;1497132;39;20034;-62
2021/06/03 05:31:26;;;;;;;6.88;6.18;;;;;;;;;;1496957;39;20034;-62
2021/06/03 05:32:28;;;;;;;7.10;6.00;;;;;;;;;;1496936;39;20111;-62
2021/06/03 05:33:29;;;;;;;6.85;6.15;;;;;;;;;;1497038;39;20148;-62
2021/06/03 05:34:30;;;;;;;6.20;5.50;;;;;;;;;;1497144;39;20032;-62
2021/06/03 05:35:32;;;;;;;7.82;6.40;;;;;;;;;;1497080;39;20027;-62
2021/06/03 05:36:32;;;;;;;9.43;5.93;;;;;;;;;;1497143;39;20073;-62
2021/06/03 05:37:34;;;;;;;7.82;5.95;;;;;;;;;;1497171;39;20035;-62
2021/06/03 05:38:35;;;;;;;7.03;5.90;;;;;;;;;;1496933;39;20023;-62
2021/06/03 05:39:36;;;;;;;6.85;6.15;;;;;;;;;;1496915;39;20024;-62
2021/06/03 05:40:37;;;;;;;6.38;5.75;;;;;;;;;;1497186;39;20028;-62
2021/06/03 05:41:38;;;;;;;6.47;5.80;;;;;;;;;;1496950;39;20050;-62
2021/06/03 05:42:40;;;;;;;6.85;5.72;;;;;;;;;;1497102;39;20027;-62
2021/06/03 05:43:42;;;;;;;9.50;6.00;;;;;;;;;;1497226;39;20039;-62
2021/06/03 05:44:43;;;;;;;6.32;5.50;;;;;;;;;;1497003;39;20026;-62
2021/06/03 05:45:44;;;;;;;7.43;5.85;;;;;;;;;;1496923;39;20387;-62
2021/06/03 05:46:45;;;;;;;7.75;5.60;;;;;;;;;;1497094;39;20038;-62
2021/06/03 05:47:48;;;;;;;6.15;5.32;;;;;;;;;;1497150;39;20031;-63
2021/06/03 05:48:50;;;;;;;7.00;6.05;;;;;;;;;;1497113;39;20031;-63
2021/06/03 05:49:51;;;;;;;6.22;5.32;;;;;;;;;;1497075;39;20023;-63
2021/06/03 05:50:52;;;;;;;6.10;5.50;;;;;;;;;;1497043;39;20057;-63
2021/06/03 05:51:54;;;;;;;6.20;5.50;;;;;;;;;;1496822;39;20031;-63
2021/06/03 05:52:55;;;;;;;6.25;5.65;;;;;;;;;;1496975;39;20023;-63
2021/06/03 05:53:56;;;;;;;6.47;5.78;;;;;;;;;;1496910;39;20342;-63
2021/06/03 05:54:57;;;;;;;6.28;4.97;;;;;;;;;;1496985;39;20127;-62
2021/06/03 05:55:58;;;;;;;6.20;5.60;;;;;;;;;;1496900;39;20030;-62
2021/06/03 05:57:00;;;;;;;6.70;5.43;;;;;;;;;;1496963;39;20034;-63
2021/06/03 05:58:00;;;;;;;6.25;5.57;;;;;;;;;;1496852;39;20417;-63
2021/06/03 05:59:03;;;;;;;5.55;5.05;;;;;;;;;;1496923;39;20027;-62
2021/06/03 06:00:05;;;;;;;7.28;5.07;;;;;;;;;;1497062;39;20104;-63
2021/06/03 06:01:07;;;;;;;6.18;5.10;;;;;;;;;;1496978;39;20023;-63
2021/06/03 06:02:11;;;;;;;6.68;5.95;;;;;;;;;;1496879;39;20310;-63
2021/06/03 06:03:16;;;;;;;7.90;5.20;;;;;;;;;;1496865;39;20067;-63
2021/06/03 06:06:52;;;;;;;5.63;4.70;;;;;;;;;;1497686;39;20059;-63
2021/06/03 06:07:53;;;;;;;6.55;5.15;;;;;;;;;;1497464;39;20035;-63
2021/06/03 06:08:56;;;;;;;5.97;4.57;;;;;;;;;;1497547;39;20131;-62